Time;durP1;ratioP1;P1;durP2;ratioP2;P2;SDS_P1;SDS_P2;PMS_P1;PMS_P2;Temp;Humidity;BMP_temperature;BMP_pressure;BME280_temperature;BME280_humidity;BME280_pressure;Samples;Min_cycle;Max_cycle;Signal;HPM_P1;HPM_P2
2021/10/01 00:02:34;;;;;;;2.70;1.67;;;;;;;;;;10440290;28;19928;-70
2021/10/01 00:07:38;;;;;;;2.58;1.83;;;;;;;;;;10437713;28;20366;-70
2021/10/01 00:12:41;;;;;;;5.25;2.10;;;;;;;;;;10445142;28;20139;-70
2021/10/01 00:17:44;;;;;;;1.13;1.02;;;;;;;;;;10444642;28;20056;-70
2021/10/01 00:22:48;;;;;;;5.57;2.38;;;;;;;;;;10448832;28;20068;-70
2021/10/01 00:27:50;;;;;;;;;;;;;;;;;;10446469;28;20041;-68
2021/10/01 00:32:53;;;;;;;8.55;2.65;;;;;;;;;;10462743;28;19925;-70
2021/10/01 00:37:59;;;;;;;6.22;2.30;;;;;;;;;;10439866;28;20047;-71
2021/10/01 00:43:02;;;;;;;0.35;0.35;;;;;;;;;;10443038;28;20049;-71
2021/10/01 00:48:05;;;;;;;1.58;1.20;;;;;;;;;;10444604;28;20155;-68
2021/10/01 00:53:09;;;;;;;3.33;2.15;;;;;;;;;;10446368;28;20071;-70
2021/10/01 00:58:12;;;;;;;5.55;2.60;;;;;;;;;;10443091;28;20037;-71
2021/10/01 01:03:15;;;;;;;5.32;1.98;;;;;;;;;;10446778;28;20564;-70
2021/10/01 01:08:22;;;;;;;6.88;3.38;;;;;;;;;;10444989;28;20045;-70
2021/10/01 01:13:28;;;;;;;6.22;2.70;;;;;;;;;;10442224;28;20415;-70
2021/10/01 01:18:32;;;;;;;4.50;2.03;;;;;;;;;;10443911;28;20033;-72
2021/10/01 01:23:56;;;;;;;4.65;2.38;;;;;;;;;;10443428;28;20098;-70
2021/10/01 01:29:08;;;;;;;3.90;2.25;;;;;;;;;;10439512;28;20041;-69
2021/10/01 01:34:15;;;;;;;3.13;2.38;;;;;;;;;;10440719;28;20079;-68
2021/10/01 01:39:18;;;;;;;6.30;2.70;;;;;;;;;;10436534;28;20133;-69
2021/10/01 01:44:21;;;;;;;4.60;2.63;;;;;;;;;;10443356;28;20045;-70
2021/10/01 01:49:25;;;;;;;4.93;2.28;;;;;;;;;;10440771;28;20140;-70
2021/10/01 01:54:29;;;;;;;5.55;2.55;;;;;;;;;;10443062;28;20044;-70
2021/10/01 01:59:32;;;;;;;4.88;2.35;;;;;;;;;;10442132;28;20060;-71
2021/10/01 02:04:37;;;;;;;4.37;2.33;;;;;;;;;;10443678;28;20041;-68
2021/10/01 02:09:40;;;;;;;5.40;2.67;;;;;;;;;;10440692;28;20087;-70
2021/10/01 02:14:47;;;;;;;3.63;2.27;;;;;;;;;;10443737;28;20052;-70
2021/10/01 02:19:53;;;;;;;3.35;2.33;;;;;;;;;;10441209;28;20108;-69
2021/10/01 02:24:56;;;;;;;8.73;2.72;;;;;;;;;;10439103;28;20482;-68
2021/10/01 02:30:00;;;;;;;3.30;2.30;;;;;;;;;;10443353;28;20036;-70
2021/10/01 02:35:05;;;;;;;5.25;2.42;;;;;;;;;;10437623;28;20055;-68
2021/10/01 02:40:08;;;;;;;4.30;1.92;;;;;;;;;;10434543;28;20064;-69
2021/10/01 02:45:12;;;;;;;5.82;2.25;;;;;;;;;;10440934;28;20517;-67
2021/10/01 02:50:17;;;;;;;4.20;2.50;;;;;;;;;;10437068;28;20041;-69
2021/10/01 02:55:22;;;;;;;6.85;2.17;;;;;;;;;;10439053;28;20299;-69
2021/10/01 03:00:25;;;;;;;3.15;2.17;;;;;;;;;;10440082;28;20040;-69
2021/10/01 03:05:30;;;;;;;3.75;1.35;;;;;;;;;;10440214;28;20044;-71
2021/10/01 03:10:33;;;;;;;3.67;2.03;;;;;;;;;;10438081;28;20033;-70
2021/10/01 03:15:36;;;;;;;3.90;1.83;;;;;;;;;;10434607;28;20072;-69
2021/10/01 03:20:41;;;;;;;5.95;2.22;;;;;;;;;;10440413;28;20041;-70
2021/10/01 03:25:44;;;;;;;5.13;2.22;;;;;;;;;;10453192;28;20041;-70
2021/10/01 03:30:47;;;;;;;4.30;2.13;;;;;;;;;;10442559;28;20087;-69
2021/10/01 03:35:52;;;;;;;1.13;0.88;;;;;;;;;;10436640;28;20504;-69
2021/10/01 03:40:55;;;;;;;3.42;2.05;;;;;;;;;;10439600;28;20037;-68
2021/10/01 03:45:58;;;;;;;3.20;1.85;;;;;;;;;;10443065;28;20037;-69
2021/10/01 03:51:03;;;;;;;4.25;1.95;;;;;;;;;;10442698;28;20040;-71
2021/10/01 03:56:10;;;;;;;4.68;2.20;;;;;;;;;;10450510;28;20036;-71
2021/10/01 04:01:14;;;;;;;5.15;2.08;;;;;;;;;;10448411;28;20409;-70
2021/10/01 04:06:18;;;;;;;4.03;1.87;;;;;;;;;;10448463;28;20049;-71
2021/10/01 04:11:21;;;;;;;4.88;1.92;;;;;;;;;;10448717;28;20087;-71
2021/10/01 04:16:36;;;;;;;4.50;1.70;;;;;;;;;;10438138;28;20492;-70
2021/10/01 04:21:44;;;;;;;3.03;1.92;;;;;;;;;;10448866;28;20037;-69
2021/10/01 04:26:47;;;;;;;5.90;1.90;;;;;;;;;;10446257;28;20056;-70
2021/10/01 04:31:50;;;;;;;4.55;2.00;;;;;;;;;;10448873;28;20040;-71
2021/10/01 04:36:54;;;;;;;4.20;2.05;;;;;;;;;;10454817;28;20040;-70
2021/10/01 04:41:57;;;;;;;4.13;2.05;;;;;;;;;;10448019;28;20036;-71
2021/10/01 04:47:00;;;;;;;4.30;2.03;;;;;;;;;;10436669;28;20114;-70
2021/10/01 04:52:05;;;;;;;2.77;1.70;;;;;;;;;;10441306;28;20107;-67
2021/10/01 04:57:09;;;;;;;5.47;2.08;;;;;;;;;;10444501;28;20542;-69
2021/10/01 05:02:12;;;;;;;3.58;2.08;;;;;;;;;;10447398;28;20048;-71
2021/10/01 05:07:19;;;;;;;4.15;2.20;;;;;;;;;;10441905;28;20061;-72
2021/10/01 05:12:22;;;;;;;4.70;2.25;;;;;;;;;;10442989;28;20060;-70
2021/10/01 05:17:25;;;;;;;6.82;2.10;;;;;;;;;;10440248;28;20049;-69
2021/10/01 05:22:29;;;;;;;3.22;1.65;;;;;;;;;;10439721;28;20072;-71
2021/10/01 05:27:32;;;;;;;;;;;;;;;;;;10431212;28;20493;-70
2021/10/01 05:32:35;;;;;;;4.97;1.85;;;;;;;;;;10434962;28;19924;-70
2021/10/01 05:37:39;;;;;;;7.30;2.20;;;;;;;;;;10441773;28;20397;-70
2021/10/01 05:42:42;;;;;;;5.10;1.83;;;;;;;;;;10443938;28;20497;-70
2021/10/01 05:47:44;;;;;;;4.45;2.30;;;;;;;;;;10435316;28;20270;-69
2021/10/01 05:52:56;;;;;;;4.10;2.10;;;;;;;;;;10438238;28;20045;-70
2021/10/01 05:57:59;;;;;;;4.13;1.80;;;;;;;;;;10441068;28;20107;-71
2021/10/01 06:03:01;;;;;;;2.95;1.58;;;;;;;;;;10442934;28;20045;-71
2021/10/01 06:08:06;;;;;;;9.60;2.70;;;;;;;;;;10436611;28;20079;-71
2021/10/01 06:13:09;;;;;;;6.30;1.88;;;;;;;;;;10441596;28;20468;-71
2021/10/01 06:18:12;;;;;;;8.93;2.10;;;;;;;;;;10434411;28;20052;-69
2021/10/01 06:23:17;;;;;;;4.13;2.10;;;;;;;;;;10439272;28;20041;-71
2021/10/01 06:28:20;;;;;;;5.30;2.10;;;;;;;;;;10441096;28;20082;-71
2021/10/01 06:33:23;;;;;;;5.63;2.03;;;;;;;;;;10445478;28;20116;-70
2021/10/01 06:38:29;;;;;;;6.80;1.93;;;;;;;;;;10440320;28;20048;-69
2021/10/01 06:43:32;;;;;;;3.83;2.05;;;;;;;;;;10435812;28;20037;-69
2021/10/01 06:48:46;;;;;;;6.43;2.25;;;;;;;;;;10439182;28;20048;-70
2021/10/01 08:24:32;;;;;;;3.13;1.90;;;;;;;;;;10439400;28;20039;-69
2021/10/01 08:29:37;;;;;;;3.33;2.10;;;;;;;;;;10442738;28;20053;-70
2021/10/01 08:34:41;;;;;;;2.80;2.00;;;;;;;;;;10447487;28;20463;-68
2021/10/01 08:39:44;;;;;;;3.90;1.83;;;;;;;;;;10444738;28;20052;-70
2021/10/01 08:44:49;;;;;;;2.40;1.95;;;;;;;;;;10442792;28;20049;-69
2021/10/01 08:49:52;;;;;;;3.78;1.95;;;;;;;;;;10444805;28;20048;-67
2021/10/01 08:54:55;;;;;;;2.70;2.05;;;;;;;;;;10447110;28;20606;-70
2021/10/01 09:00:00;;;;;;;4.35;1.90;;;;;;;;;;10444881;28;20433;-69
2021/10/01 09:05:03;;;;;;;5.25;2.00;;;;;;;;;;10440514;28;20033;-70
2021/10/01 09:10:09;;;;;;;3.08;2.00;;;;;;;;;;10444078;28;20076;-70
2021/10/01 09:15:13;;;;;;;3.00;2.35;;;;;;;;;;10445743;28;20053;-70
2021/10/01 09:20:17;;;;;;;4.07;1.92;;;;;;;;;;10443801;28;20102;-70
2021/10/01 09:25:24;;;;;;;3.15;1.80;;;;;;;;;;10442293;28;20033;-71
2021/10/01 09:30:28;;;;;;;2.20;1.70;;;;;;;;;;10446875;28;20041;-70
2021/10/01 09:35:31;;;;;;;2.63;1.70;;;;;;;;;;10442484;28;20160;-69
2021/10/01 09:40:35;;;;;;;6.22;1.75;;;;;;;;;;10431603;28;20068;-67
2021/10/01 09:45:40;;;;;;;4.97;3.40;;;;;;;;;;10442673;28;20045;-70
2021/10/01 09:50:43;;;;;;;2.78;1.70;;;;;;;;;;10442514;28;20136;-68
2021/10/01 09:55:46;;;;;;;3.33;2.67;;;;;;;;;;10442057;28;20048;-69
2021/10/01 10:00:55;;;;;;;3.50;1.40;;;;;;;;;;10444926;28;20072;-68
2021/10/01 10:05:59;;;;;;;3.20;1.30;;;;;;;;;;10443363;28;20040;-69
2021/10/01 10:11:02;;;;;;;7.10;1.50;;;;;;;;;;10437680;28;20055;-70
2021/10/01 10:16:07;;;;;;;3.28;1.50;;;;;;;;;;10440288;28;20045;-69
2021/10/01 10:21:10;;;;;;;4.07;1.90;;;;;;;;;;10442996;28;20513;-70
2021/10/01 10:26:13;;;;;;;3.05;1.35;;;;;;;;;;10443187;28;20045;-69
2021/10/01 10:31:18;;;;;;;5.18;1.60;;;;;;;;;;10442647;28;20493;-68
2021/10/01 10:36:35;;;;;;;3.22;1.42;;;;;;;;;;10438780;28;20127;-70
2021/10/01 10:41:39;;;;;;;3.38;2.17;;;;;;;;;;10441211;28;20061;-70
2021/10/01 10:46:45;;;;;;;2.38;1.50;;;;;;;;;;10437560;28;20500;-70
2021/10/01 10:52:02;;;;;;;2.20;1.50;;;;;;;;;;10442307;28;20048;-71
2021/10/01 10:57:25;;;;;;;3.75;1.40;;;;;;;;;;10437871;28;20163;-69
2021/10/01 11:02:33;;;;;;;5.20;2.10;;;;;;;;;;10436327;28;20064;-70
2021/10/01 11:07:47;;;;;;;2.63;1.67;;;;;;;;;;10436969;28;20091;-69
2021/10/01 11:12:51;;;;;;;1.42;1.33;;;;;;;;;;10435361;28;20053;-68
2021/10/01 11:18:15;;;;;;;3.38;1.40;;;;;;;;;;10433455;28;20572;-70
2021/10/01 11:23:20;;;;;;;1.90;1.45;;;;;;;;;;10432299;28;20084;-70
2021/10/01 11:28:32;;;;;;;2.05;1.60;;;;;;;;;;10437880;28;20473;-70
2021/10/01 11:33:34;;;;;;;2.33;1.33;;;;;;;;;;10439988;28;20350;-68
2021/10/01 11:38:39;;;;;;;2.97;1.65;;;;;;;;;;10431105;28;20107;-70
2021/10/01 11:43:46;;;;;;;1.65;1.50;;;;;;;;;;10435932;28;20126;-69
2021/10/01 11:48:49;;;;;;;2.10;1.33;;;;;;;;;;10436347;28;20037;-71
2021/10/01 11:54:06;;;;;;;4.82;1.75;;;;;;;;;;10436440;28;20048;-73
2021/10/01 11:59:10;;;;;;;2.65;1.50;;;;;;;;;;10435803;28;20080;-72
2021/10/01 12:04:13;;;;;;;4.95;1.80;;;;;;;;;;10446563;28;20480;-74
2021/10/01 12:09:20;;;;;;;3.88;1.70;;;;;;;;;;10440738;28;20045;-73
2021/10/01 12:14:23;;;;;;;2.60;1.60;;;;;;;;;;10450178;28;20084;-70
2021/10/01 12:19:28;;;;;;;1.73;1.50;;;;;;;;;;10439694;28;20339;-70
2021/10/01 12:24:42;;;;;;;2.05;1.70;;;;;;;;;;10438698;28;20076;-72
2021/10/01 12:29:46;;;;;;;3.22;1.58;;;;;;;;;;10440217;28;20037;-73
2021/10/01 12:34:50;;;;;;;12.10;2.03;;;;;;;;;;10440627;28;20068;-70
2021/10/01 12:39:55;;;;;;;3.08;1.48;;;;;;;;;;10426315;28;20064;-70
2021/10/01 12:45:00;;;;;;;5.05;1.70;;;;;;;;;;10446267;28;20114;-74
2021/10/01 12:50:04;;;;;;;2.80;1.75;;;;;;;;;;10439254;28;20037;-73
2021/10/01 12:55:09;;;;;;;2.08;1.60;;;;;;;;;;10442570;28;20045;-73
2021/10/01 13:00:13;;;;;;;2.30;1.52;;;;;;;;;;10443820;28;20037;-73
2021/10/01 13:05:19;;;;;;;2.47;1.45;;;;;;;;;;10445690;28;20036;-74
2021/10/01 13:10:25;;;;;;;1.55;1.27;;;;;;;;;;10438468;28;20040;-74
2021/10/01 13:15:30;;;;;;;3.05;1.50;;;;;;;;;;10439282;28;20439;-74
2021/10/01 13:20:34;;;;;;;1.90;1.40;;;;;;;;;;10428701;28;20152;-73
2021/10/01 13:25:42;;;;;;;1.75;1.38;;;;;;;;;;10427357;28;20502;-74
2021/10/01 13:30:46;;;;;;;3.58;1.42;;;;;;;;;;10435318;28;20045;-72
2021/10/01 13:35:49;;;;;;;1.33;1.20;;;;;;;;;;10435847;28;20102;-74
2021/10/01 13:40:53;;;;;;;2.08;1.30;;;;;;;;;;10439319;28;20037;-73
2021/10/01 13:45:57;;;;;;;3.80;1.60;;;;;;;;;;10441183;28;20044;-73
2021/10/01 13:51:00;;;;;;;1.40;1.30;;;;;;;;;;10452159;28;20117;-73
2021/10/01 13:56:04;;;;;;;2.70;1.20;;;;;;;;;;10433945;28;20055;-73
2021/10/01 14:01:07;;;;;;;2.47;1.40;;;;;;;;;;10442570;28;20141;-73
2021/10/01 14:06:10;;;;;;;2.90;1.25;;;;;;;;;;10437151;28;20044;-73
2021/10/01 14:11:14;;;;;;;2.03;1.20;;;;;;;;;;10439186;28;20056;-73
2021/10/01 14:16:17;;;;;;;3.03;1.13;;;;;;;;;;10433996;28;20442;-74
2021/10/01 14:21:20;;;;;;;2.08;1.02;;;;;;;;;;10438768;28;20125;-72
2021/10/01 14:26:26;;;;;;;2.00;1.20;;;;;;;;;;10434929;28;20056;-72
2021/10/01 14:31:29;;;;;;;4.40;1.33;;;;;;;;;;10432483;28;20119;-73
2021/10/01 14:36:32;;;;;;;2.58;1.40;;;;;;;;;;10436890;28;20423;-75
2021/10/01 14:41:37;;;;;;;5.93;3.30;;;;;;;;;;10438355;28;20041;-73
2021/10/01 14:46:39;;;;;;;4.30;1.50;;;;;;;;;;10431974;28;20143;-73
2021/10/01 14:51:42;;;;;;;2.15;1.20;;;;;;;;;;10435986;28;20614;-74
2021/10/01 14:56:47;;;;;;;9.18;4.78;;;;;;;;;;10438307;28;20049;-74
2021/10/01 15:01:50;;;;;;;2.67;1.58;;;;;;;;;;10441016;28;20103;-75
2021/10/01 15:06:53;;;;;;;3.70;1.60;;;;;;;;;;10433043;28;20051;-73
2021/10/01 15:11:57;;;;;;;5.03;1.70;;;;;;;;;;10436802;28;20049;-74
2021/10/01 15:17:00;;;;;;;2.80;1.27;;;;;;;;;;10432928;28;20476;-74
2021/10/01 15:22:03;;;;;;;2.80;1.05;;;;;;;;;;10438291;28;20041;-70
2021/10/01 15:27:07;;;;;;;3.58;2.17;;;;;;;;;;10432095;28;20195;-67
2021/10/01 15:32:10;;;;;;;3.05;1.15;;;;;;;;;;10438600;28;20120;-72
2021/10/01 15:37:13;;;;;;;2.20;1.50;;;;;;;;;;10428664;28;20049;-70
2021/10/01 15:42:17;;;;;;;2.85;1.20;;;;;;;;;;10444841;28;20751;-70
2021/10/01 15:47:21;;;;;;;1.83;1.05;;;;;;;;;;10444045;28;20135;-70
2021/10/01 15:52:24;;;;;;;1.40;1.30;;;;;;;;;;10444383;28;20172;-70
2021/10/01 15:57:27;;;;;;;;;;;;;;;;;;10448836;28;20445;-70
2021/10/01 16:02:31;;;;;;;1.27;1.00;;;;;;;;;;10447635;28;20032;-69
2021/10/01 16:07:34;;;;;;;1.55;1.00;;;;;;;;;;10448016;28;20554;-69
2021/10/01 16:12:38;;;;;;;1.42;1.13;;;;;;;;;;10448503;28;20173;-70
2021/10/01 16:17:42;;;;;;;2.22;1.20;;;;;;;;;;10446385;28;20439;-69
2021/10/01 16:22:46;;;;;;;2.30;1.13;;;;;;;;;;10450055;28;20037;-70
2021/10/01 16:27:49;;;;;;;2.55;1.30;;;;;;;;;;10445665;28;20121;-70
2021/10/01 16:32:53;;;;;;;4.85;1.80;;;;;;;;;;10451531;28;20040;-70
2021/10/01 16:37:56;;;;;;;1.95;1.45;;;;;;;;;;10449504;28;20049;-70
2021/10/01 16:42:59;;;;;;;4.68;1.20;;;;;;;;;;10452286;28;20063;-70
2021/10/01 16:48:03;;;;;;;1.92;1.27;;;;;;;;;;10447141;28;20051;-68
2021/10/01 16:53:07;;;;;;;2.10;1.40;;;;;;;;;;10448802;28;20041;-71
2021/10/01 16:58:10;;;;;;;3.58;1.45;;;;;;;;;;10447087;28;20060;-71
2021/10/01 17:03:15;;;;;;;6.72;1.83;;;;;;;;;;10450037;28;20037;-70
2021/10/01 17:08:17;;;;;;;2.95;1.40;;;;;;;;;;10449232;28;20048;-71
2021/10/01 17:13:20;;;;;;;2.78;1.65;;;;;;;;;;10450275;28;20095;-70
2021/10/01 17:18:25;;;;;;;4.85;1.95;;;;;;;;;;10442444;28;20053;-70
2021/10/01 17:23:28;;;;;;;5.65;3.13;;;;;;;;;;10441957;28;20032;-68
2021/10/01 17:28:31;;;;;;;7.90;2.83;;;;;;;;;;10440643;28;20045;-71
2021/10/01 17:33:35;;;;;;;6.95;3.00;;;;;;;;;;10459539;28;20110;-71
2021/10/01 17:38:39;;;;;;;9.85;3.83;;;;;;;;;;10444859;28;20047;-71
2021/10/01 17:43:41;;;;;;;3.77;2.43;;;;;;;;;;10445916;28;20053;-70
2021/10/01 17:48:46;;;;;;;8.70;3.80;;;;;;;;;;10440430;28;20056;-70
2021/10/01 17:53:48;;;;;;;12.43;5.47;;;;;;;;;;10441554;28;20075;-70
2021/10/01 17:58:52;;;;;;;6.87;3.43;;;;;;;;;;10440274;28;20106;-70
2021/10/01 18:03:56;;;;;;;6.22;3.25;;;;;;;;;;10443647;28;20098;-72
2021/10/01 18:08:59;;;;;;;5.28;2.90;;;;;;;;;;10439606;28;20129;-71
2021/10/01 18:14:03;;;;;;;3.73;1.93;;;;;;;;;;10443326;28;20052;-71
2021/10/01 18:19:07;;;;;;;9.70;3.42;;;;;;;;;;10439133;28;20033;-70
2021/10/01 18:24:10;;;;;;;7.13;3.00;;;;;;;;;;10438106;28;20561;-70
2021/10/01 18:29:13;;;;;;;6.32;3.10;;;;;;;;;;10445020;28;20041;-69
2021/10/01 18:34:17;;;;;;;6.97;2.87;;;;;;;;;;10446356;28;20049;-70
2021/10/01 18:39:20;;;;;;;4.55;2.13;;;;;;;;;;10445665;28;20123;-71
2021/10/01 18:44:23;;;;;;;5.57;2.73;;;;;;;;;;10441334;28;20064;-69
2021/10/01 18:49:28;;;;;;;6.22;2.63;;;;;;;;;;10443129;28;20041;-70
2021/10/01 18:54:30;;;;;;;12.15;3.40;;;;;;;;;;10444505;28;20099;-71
2021/10/01 18:59:33;;;;;;;6.17;2.87;;;;;;;;;;10446790;28;20401;-70
2021/10/01 19:04:37;;;;;;;5.30;2.10;;;;;;;;;;10445235;28;20559;-70
2021/10/01 19:09:40;;;;;;;7.47;3.45;;;;;;;;;;10435610;28;20468;-71
2021/10/01 19:14:43;;;;;;;3.93;1.80;;;;;;;;;;10437034;28;20106;-70
2021/10/01 19:19:47;;;;;;;7.57;3.60;;;;;;;;;;10438476;28;20049;-71
2021/10/01 19:24:59;;;;;;;6.85;2.65;;;;;;;;;;10441387;28;20098;-70
2021/10/01 19:35:25;;;;;;;3.55;2.30;;;;;;;;;;10439139;28;20052;-70
2021/10/01 19:40:29;;;;;;;4.38;2.45;;;;;;;;;;10442334;28;20111;-71
2021/10/01 19:45:34;;;;;;;7.78;3.28;;;;;;;;;;10438044;28;20428;-71
2021/10/01 19:50:38;;;;;;;10.43;3.27;;;;;;;;;;10441462;28;20213;-70
2021/10/01 19:55:45;;;;;;;6.90;3.17;;;;;;;;;;10438501;28;20037;-70
2021/10/01 20:00:53;;;;;;;13.30;3.13;;;;;;;;;;10439296;28;20489;-70
2021/10/01 20:05:57;;;;;;;7.13;3.42;;;;;;;;;;10439751;28;20048;-70
2021/10/01 20:11:00;;;;;;;5.93;2.85;;;;;;;;;;10438519;28;20037;-72
2021/10/01 20:16:02;;;;;;;6.63;3.20;;;;;;;;;;10439906;28;20053;-71
2021/10/01 20:21:13;;;;;;;5.80;3.17;;;;;;;;;;10440155;28;20051;-70
2021/10/01 20:47:38;;;;;;;9.02;3.58;;;;;;;;;;10447011;28;20041;-69
2021/10/01 20:52:42;;;;;;;7.70;3.63;;;;;;;;;;10446562;28;20124;-70
2021/10/01 20:57:49;;;;;;;6.75;3.35;;;;;;;;;;10445327;28;20523;-70
2021/10/01 21:03:08;;;;;;;6.25;2.80;;;;;;;;;;10442439;28;20070;-70
2021/10/01 21:45:47;;;;;;;8.23;3.50;;;;;;;;;;10441890;28;20053;-70
2021/10/01 21:51:12;;;;;;;5.38;2.92;;;;;;;;;;10443146;28;20386;-71
2021/10/01 21:56:35;;;;;;;;;;;;;;;;;;10443294;28;20053;-71
2021/10/01 22:01:44;;;;;;;5.93;3.65;;;;;;;;;;10444493;28;19921;-71
2021/10/01 22:23:00;;;;;;;8.38;3.20;;;;;;;;;;10443447;28;20045;-69
2021/10/01 22:28:04;;;;;;;8.82;3.60;;;;;;;;;;10438380;28;20036;-70
2021/10/01 22:33:08;;;;;;;6.25;3.03;;;;;;;;;;10442764;28;20112;-71
2021/10/01 22:38:14;;;;;;;7.43;3.40;;;;;;;;;;10441061;28;20037;-70
2021/10/01 22:43:21;;;;;;;7.38;3.70;;;;;;;;;;10443872;28;20190;-70
2021/10/01 22:48:25;;;;;;;6.18;3.20;;;;;;;;;;10439732;28;20327;-71
2021/10/01 22:53:28;;;;;;;8.23;3.80;;;;;;;;;;10439684;28;20509;-71
2021/10/01 22:58:31;;;;;;;7.07;3.87;;;;;;;;;;10442038;28;20053;-70
2021/10/01 23:03:35;;;;;;;11.07;4.93;;;;;;;;;;10438663;28;20123;-70
2021/10/01 23:08:38;;;;;;;8.30;3.65;;;;;;;;;;10437524;28;20040;-71
2021/10/01 23:13:57;;;;;;;8.40;3.53;;;;;;;;;;10445146;28;20109;-70
2021/10/01 23:51:15;;;;;;;6.45;3.03;;;;;;;;;;10437065;28;20040;-69
